sensor_id;sensor_type;location;lat;lon;timestamp;P1;durP1;ratioP1;P2;durP2;ratioP2
7142;SDS011;3613;48.902;9.204;2023-09-08T00:02:03;11.47;;;8.60;;
7142;SDS011;3613;48.902;9.204;2023-09-08T00:04:29;13.67;;;9.10;;
7142;SDS011;3613;48.902;9.204;2023-09-08T00:06:55;11.07;;;8.93;;
7142;SDS011;3613;48.902;9.204;2023-09-08T00:09:23;11.80;;;8.60;;
7142;SDS011;3613;48.902;9.204;2023-09-08T00:11:53;11.57;;;9.47;;
7142;SDS011;3613;48.902;9.204;2023-09-08T00:14:21;10.63;;;9.03;;
7142;SDS011;3613;48.902;9.204;2023-09-08T00:16:47;11.77;;;9.23;;
7142;SDS011;3613;48.902;9.204;2023-09-08T00:19:13;10.80;;;9.03;;
7142;SDS011;3613;48.902;9.204;2023-09-08T00:21:39;14.00;;;9.30;;
7142;SDS011;3613;48.902;9.204;2023-09-08T00:24:04;12.23;;;9.10;;
7142;SDS011;3613;48.902;9.204;2023-09-08T00:26:30;12.93;;;9.63;;
7142;SDS011;3613;48.902;9.204;2023-09-08T00:28:57;13.03;;;9.70;;
7142;SDS011;3613;48.902;9.204;2023-09-08T00:31:22;10.77;;;9.13;;
7142;SDS011;3613;48.902;9.204;2023-09-08T00:33:48;13.47;;;9.27;;
7142;SDS011;3613;48.902;9.204;2023-09-08T00:36:13;12.83;;;9.57;;
7142;SDS011;3613;48.902;9.204;2023-09-08T00:38:41;13.70;;;9.70;;
7142;SDS011;3613;48.902;9.204;2023-09-08T00:41:07;12.13;;;9.47;;
7142;SDS011;3613;48.902;9.204;2023-09-08T00:43:32;13.53;;;10.17;;
7142;SDS011;3613;48.902;9.204;2023-09-08T00:46:01;13.07;;;10.13;;
7142;SDS011;3613;48.902;9.204;2023-09-08T00:48:27;13.47;;;9.87;;
7142;SDS011;3613;48.902;9.204;2023-09-08T00:50:56;12.77;;;9.77;;
7142;SDS011;3613;48.902;9.204;2023-09-08T00:53:22;12.73;;;10.57;;
7142;SDS011;3613;48.902;9.204;2023-09-08T00:55:51;13.57;;;10.23;;
7142;SDS011;3613;48.902;9.204;2023-09-08T00:58:17;12.80;;;10.30;;
7142;SDS011;3613;48.902;9.204;2023-09-08T01:00:42;14.00;;;10.30;;
7142;SDS011;3613;48.902;9.204;2023-09-08T01:03:12;12.37;;;10.40;;
7142;SDS011;3613;48.902;9.204;2023-09-08T01:05:37;15.53;;;9.93;;
7142;SDS011;3613;48.902;9.204;2023-09-08T01:08:06;16.87;;;10.80;;
7142;SDS011;3613;48.902;9.204;2023-09-08T01:10:32;17.00;;;10.40;;
7142;SDS011;3613;48.902;9.204;2023-09-08T01:13:04;13.93;;;10.83;;
7142;SDS011;3613;48.902;9.204;2023-09-08T01:15:30;13.93;;;10.27;;
7142;SDS011;3613;48.902;9.204;2023-09-08T01:17:56;13.90;;;10.73;;
7142;SDS011;3613;48.902;9.204;2023-09-08T01:20:26;12.80;;;10.40;;
7142;SDS011;3613;48.902;9.204;2023-09-08T01:23:01;15.43;;;10.33;;
7142;SDS011;3613;48.902;9.204;2023-09-08T01:25:43;11.60;;;9.63;;
7142;SDS011;3613;48.902;9.204;2023-09-08T01:28:15;13.70;;;10.60;;
7142;SDS011;3613;48.902;9.204;2023-09-08T01:30:43;15.87;;;10.87;;
7142;SDS011;3613;48.902;9.204;2023-09-08T01:33:09;13.37;;;10.43;;
7142;SDS011;3613;48.902;9.204;2023-09-08T01:35:36;16.30;;;10.57;;
7142;SDS011;3613;48.902;9.204;2023-09-08T01:38:04;12.90;;;10.37;;
7142;SDS011;3613;48.902;9.204;2023-09-08T01:40:30;14.70;;;10.13;;
7142;SDS011;3613;48.902;9.204;2023-09-08T01:42:55;16.70;;;10.83;;
7142;SDS011;3613;48.902;9.204;2023-09-08T01:45:23;13.60;;;11.07;;
7142;SDS011;3613;48.902;9.204;2023-09-08T01:47:51;15.30;;;10.73;;
7142;SDS011;3613;48.902;9.204;2023-09-08T01:50:19;14.67;;;10.87;;
7142;SDS011;3613;48.902;9.204;2023-09-08T01:52:47;14.23;;;11.03;;
7142;SDS011;3613;48.902;9.204;2023-09-08T01:55:13;15.43;;;10.43;;
7142;SDS011;3613;48.902;9.204;2023-09-08T01:57:40;16.97;;;11.17;;
7142;SDS011;3613;48.902;9.204;2023-09-08T02:00:05;13.03;;;10.90;;
7142;SDS011;3613;48.902;9.204;2023-09-08T02:02:36;14.33;;;10.93;;
7142;SDS011;3613;48.902;9.204;2023-09-08T02:05:02;15.23;;;11.40;;
7142;SDS011;3613;48.902;9.204;2023-09-08T02:07:28;16.60;;;11.43;;
7142;SDS011;3613;48.902;9.204;2023-09-08T02:09:54;14.10;;;10.57;;
7142;SDS011;3613;48.902;9.204;2023-09-08T02:12:20;15.10;;;10.97;;
7142;SDS011;3613;48.902;9.204;2023-09-08T02:14:47;16.70;;;11.30;;
7142;SDS011;3613;48.902;9.204;2023-09-08T02:17:13;16.17;;;10.80;;
7142;SDS011;3613;48.902;9.204;2023-09-08T02:19:41;14.90;;;11.23;;
7142;SDS011;3613;48.902;9.204;2023-09-08T02:22:06;14.93;;;11.40;;
7142;SDS011;3613;48.902;9.204;2023-09-08T02:24:32;19.17;;;11.30;;
7142;SDS011;3613;48.902;9.204;2023-09-08T02:26:57;15.17;;;11.47;;
7142;SDS011;3613;48.902;9.204;2023-09-08T02:29:23;17.20;;;11.03;;
7142;SDS011;3613;48.902;9.204;2023-09-08T02:31:51;15.63;;;11.63;;
7142;SDS011;3613;48.902;9.204;2023-09-08T02:34:19;16.33;;;11.93;;
7142;SDS011;3613;48.902;9.204;2023-09-08T02:36:47;16.97;;;11.57;;
7142;SDS011;3613;48.902;9.204;2023-09-08T02:39:12;19.20;;;11.67;;
7142;SDS011;3613;48.902;9.204;2023-09-08T02:41:38;15.27;;;11.00;;
7142;SDS011;3613;48.902;9.204;2023-09-08T02:44:04;15.93;;;11.20;;
7142;SDS011;3613;48.902;9.204;2023-09-08T02:46:30;21.50;;;12.80;;
7142;SDS011;3613;48.902;9.204;2023-09-08T02:48:58;17.93;;;12.23;;
7142;SDS011;3613;48.902;9.204;2023-09-08T02:51:26;14.83;;;12.17;;
7142;SDS011;3613;48.902;9.204;2023-09-08T02:53:52;14.60;;;11.73;;
7142;SDS011;3613;48.902;9.204;2023-09-08T02:56:17;19.53;;;13.60;;
7142;SDS011;3613;48.902;9.204;2023-09-08T02:58:43;17.07;;;12.43;;
7142;SDS011;3613;48.902;9.204;2023-09-08T03:01:09;19.13;;;12.67;;
7142;SDS011;3613;48.902;9.204;2023-09-08T03:03:44;16.57;;;11.57;;
7142;SDS011;3613;48.902;9.204;2023-09-08T03:06:13;21.17;;;13.83;;
7142;SDS011;3613;48.902;9.204;2023-09-08T03:08:40;17.00;;;12.13;;
7142;SDS011;3613;48.902;9.204;2023-09-08T03:11:07;19.83;;;12.43;;
7142;SDS011;3613;48.902;9.204;2023-09-08T03:13:33;17.63;;;12.53;;
7142;SDS011;3613;48.902;9.204;2023-09-08T03:16:04;18.03;;;12.53;;
7142;SDS011;3613;48.902;9.204;2023-09-08T03:18:33;16.57;;;12.37;;
7142;SDS011;3613;48.902;9.204;2023-09-08T03:21:01;19.47;;;12.50;;
7142;SDS011;3613;48.902;9.204;2023-09-08T03:23:33;18.53;;;12.63;;
7142;SDS011;3613;48.902;9.204;2023-09-08T03:26:00;20.20;;;13.17;;
7142;SDS011;3613;48.902;9.204;2023-09-08T03:28:26;21.70;;;13.70;;
7142;SDS011;3613;48.902;9.204;2023-09-08T03:30:51;22.13;;;13.87;;
7142;SDS011;3613;48.902;9.204;2023-09-08T03:33:17;15.53;;;11.63;;
7142;SDS011;3613;48.902;9.204;2023-09-08T03:35:42;17.03;;;13.07;;
7142;SDS011;3613;48.902;9.204;2023-09-08T03:38:13;20.13;;;12.70;;
7142;SDS011;3613;48.902;9.204;2023-09-08T03:40:38;17.33;;;12.93;;
7142;SDS011;3613;48.902;9.204;2023-09-08T03:43:04;17.83;;;12.37;;
7142;SDS011;3613;48.902;9.204;2023-09-08T03:45:34;19.70;;;12.60;;
7142;SDS011;3613;48.902;9.204;2023-09-08T03:48:00;17.80;;;13.30;;
7142;SDS011;3613;48.902;9.204;2023-09-08T03:50:28;19.10;;;13.27;;
7142;SDS011;3613;48.902;9.204;2023-09-08T03:52:55;16.20;;;12.13;;
7142;SDS011;3613;48.902;9.204;2023-09-08T03:55:21;18.37;;;12.97;;
7142;SDS011;3613;48.902;9.204;2023-09-08T03:57:48;18.77;;;12.83;;
7142;SDS011;3613;48.902;9.204;2023-09-08T04:00:14;20.30;;;13.73;;
7142;SDS011;3613;48.902;9.204;2023-09-08T04:02:46;18.63;;;12.83;;
7142;SDS011;3613;48.902;9.204;2023-09-08T04:05:12;18.70;;;12.23;;
7142;SDS011;3613;48.902;9.204;2023-09-08T04:07:37;18.97;;;12.83;;
7142;SDS011;3613;48.902;9.204;2023-09-08T04:10:05;20.50;;;13.93;;
7142;SDS011;3613;48.902;9.204;2023-09-08T04:12:31;22.33;;;13.13;;
7142;SDS011;3613;48.902;9.204;2023-09-08T04:14:57;18.57;;;12.67;;
7142;SDS011;3613;48.902;9.204;2023-09-08T04:17:23;19.03;;;13.30;;
7142;SDS011;3613;48.902;9.204;2023-09-08T04:19:48;21.77;;;13.77;;
7142;SDS011;3613;48.902;9.204;2023-09-08T04:22:14;22.33;;;14.23;;
7142;SDS011;3613;48.902;9.204;2023-09-08T04:24:40;18.70;;;13.10;;
7142;SDS011;3613;48.902;9.204;2023-09-08T04:27:05;18.87;;;13.47;;
7142;SDS011;3613;48.902;9.204;2023-09-08T04:29:32;19.60;;;13.47;;
7142;SDS011;3613;48.902;9.204;2023-09-08T04:31:57;18.03;;;13.17;;
7142;SDS011;3613;48.902;9.204;2023-09-08T04:34:25;22.77;;;15.03;;
7142;SDS011;3613;48.902;9.204;2023-09-08T04:36:51;23.50;;;14.47;;
7142;SDS011;3613;48.902;9.204;2023-09-08T04:39:16;20.20;;;14.23;;
7142;SDS011;3613;48.902;9.204;2023-09-08T04:41:42;23.97;;;14.13;;
7142;SDS011;3613;48.902;9.204;2023-09-08T04:44:07;21.83;;;14.27;;
7142;SDS011;3613;48.902;9.204;2023-09-08T04:46:33;20.37;;;14.00;;
7142;SDS011;3613;48.902;9.204;2023-09-08T04:49:00;19.07;;;14.13;;
7142;SDS011;3613;48.902;9.204;2023-09-08T04:51:28;20.67;;;13.77;;
7142;SDS011;3613;48.902;9.204;2023-09-08T04:53:53;18.63;;;13.33;;
7142;SDS011;3613;48.902;9.204;2023-09-08T04:56:21;22.57;;;14.90;;
7142;SDS011;3613;48.902;9.204;2023-09-08T04:58:47;22.43;;;14.63;;
7142;SDS011;3613;48.902;9.204;2023-09-08T05:01:15;23.93;;;14.10;;
7142;SDS011;3613;48.902;9.204;2023-09-08T05:03:40;23.03;;;14.40;;
7142;SDS011;3613;48.902;9.204;2023-09-08T05:06:09;20.63;;;15.30;;
7142;SDS011;3613;48.902;9.204;2023-09-08T05:08:36;22.90;;;15.47;;
7142;SDS011;3613;48.902;9.204;2023-09-08T05:11:02;21.47;;;15.17;;
7142;SDS011;3613;48.902;9.204;2023-09-08T05:13:27;22.43;;;14.93;;
7142;SDS011;3613;48.902;9.204;2023-09-08T05:15:53;20.13;;;13.80;;
7142;SDS011;3613;48.902;9.204;2023-09-08T05:18:27;14.67;;;11.17;;
7142;SDS011;3613;48.902;9.204;2023-09-08T05:20:53;11.07;;;8.97;;
7142;SDS011;3613;48.902;9.204;2023-09-08T05:23:22;10.73;;;8.50;;
7142;SDS011;3613;48.902;9.204;2023-09-08T05:25:49;9.20;;;7.53;;
7142;SDS011;3613;48.902;9.204;2023-09-08T05:28:15;10.13;;;7.60;;
7142;SDS011;3613;48.902;9.204;2023-09-08T05:30:40;10.40;;;7.43;;
7142;SDS011;3613;48.902;9.204;2023-09-08T05:33:09;9.57;;;7.47;;
7142;SDS011;3613;48.902;9.204;2023-09-08T05:35:34;9.93;;;7.50;;
7142;SDS011;3613;48.902;9.204;2023-09-08T05:38:01;8.67;;;7.10;;
7142;SDS011;3613;48.902;9.204;2023-09-08T05:40:27;9.27;;;7.80;;
7142;SDS011;3613;48.902;9.204;2023-09-08T05:42:55;9.03;;;6.87;;
7142;SDS011;3613;48.902;9.204;2023-09-08T05:45:25;8.37;;;6.97;;
7142;SDS011;3613;48.902;9.204;2023-09-08T05:47:51;10.00;;;7.77;;
7142;SDS011;3613;48.902;9.204;2023-09-08T05:50:17;12.57;;;7.17;;
7142;SDS011;3613;48.902;9.204;2023-09-08T05:52:43;14.73;;;7.00;;
7142;SDS011;3613;48.902;9.204;2023-09-08T05:55:11;8.97;;;6.77;;
7142;SDS011;3613;48.902;9.204;2023-09-08T05:57:39;10.27;;;6.83;;
7142;SDS011;3613;48.902;9.204;2023-09-08T06:00:05;7.47;;;6.40;;
7142;SDS011;3613;48.902;9.204;2023-09-08T06:02:34;10.37;;;6.53;;
7142;SDS011;3613;48.902;9.204;2023-09-08T06:05:00;9.33;;;7.00;;
7142;SDS011;3613;48.902;9.204;2023-09-08T06:07:28;12.30;;;6.63;;
7142;SDS011;3613;48.902;9.204;2023-09-08T06:09:54;9.07;;;6.67;;
7142;SDS011;3613;48.902;9.204;2023-09-08T06:12:19;13.57;;;6.93;;
7142;SDS011;3613;48.902;9.204;2023-09-08T06:14:45;8.87;;;7.50;;
7142;SDS011;3613;48.902;9.204;2023-09-08T06:17:12;10.67;;;6.47;;
7142;SDS011;3613;48.902;9.204;2023-09-08T06:19:38;9.03;;;6.97;;
7142;SDS011;3613;48.902;9.204;2023-09-08T06:22:04;8.60;;;6.50;;
7142;SDS011;3613;48.902;9.204;2023-09-08T06:24:31;9.30;;;6.87;;
7142;SDS011;3613;48.902;9.204;2023-09-08T06:26:57;10.53;;;7.20;;
7142;SDS011;3613;48.902;9.204;2023-09-08T06:29:25;12.43;;;6.68;;
7142;SDS011;3613;48.902;9.204;2023-09-08T06:31:50;10.43;;;6.80;;
7142;SDS011;3613;48.902;9.204;2023-09-08T06:34:16;7.93;;;6.70;;
7142;SDS011;3613;48.902;9.204;2023-09-08T06:36:44;9.32;;;6.97;;
7142;SDS011;3613;48.902;9.204;2023-09-08T06:39:12;9.75;;;6.25;;
7142;SDS011;3613;48.902;9.204;2023-09-08T06:41:37;6.55;;;5.95;;
7142;SDS011;3613;48.902;9.204;2023-09-08T06:44:03;9.13;;;6.10;;
7142;SDS011;3613;48.902;9.204;2023-09-08T06:46:29;9.00;;;6.72;;
7142;SDS011;3613;48.902;9.204;2023-09-08T06:48:57;10.48;;;6.65;;
7142;SDS011;3613;48.902;9.204;2023-09-08T06:51:23;10.67;;;6.20;;
7142;SDS011;3613;48.902;9.204;2023-09-08T06:53:55;6.63;;;5.93;;
7142;SDS011;3613;48.902;9.204;2023-09-08T06:56:22;9.48;;;6.07;;
7142;SDS011;3613;48.902;9.204;2023-09-08T06:58:47;9.50;;;5.97;;
7142;SDS011;3613;48.902;9.204;2023-09-08T07:01:15;8.88;;;6.20;;
7142;SDS011;3613;48.902;9.204;2023-09-08T07:03:43;7.55;;;6.00;;
7142;SDS011;3613;48.902;9.204;2023-09-08T07:06:08;8.23;;;6.20;;
7142;SDS011;3613;48.902;9.204;2023-09-08T07:08:34;6.10;;;5.50;;
7142;SDS011;3613;48.902;9.204;2023-09-08T07:11:00;8.10;;;5.93;;
7142;SDS011;3613;48.902;9.204;2023-09-08T07:13:25;8.65;;;6.65;;
7142;SDS011;3613;48.902;9.204;2023-09-08T07:15:53;7.60;;;5.75;;
7142;SDS011;3613;48.902;9.204;2023-09-08T07:18:19;7.07;;;5.90;;
7142;SDS011;3613;48.902;9.204;2023-09-08T07:20:47;6.95;;;5.70;;
7142;SDS011;3613;48.902;9.204;2023-09-08T07:23:14;7.43;;;5.22;;
7142;SDS011;3613;48.902;9.204;2023-09-08T07:25:44;6.82;;;6.00;;
7142;SDS011;3613;48.902;9.204;2023-09-08T07:28:11;6.03;;;5.38;;
7142;SDS011;3613;48.902;9.204;2023-09-08T07:30:36;5.95;;;5.35;;
7142;SDS011;3613;48.902;9.204;2023-09-08T07:33:04;7.07;;;6.38;;
7142;SDS011;3613;48.902;9.204;2023-09-08T07:35:32;8.35;;;6.43;;
7142;SDS011;3613;48.902;9.204;2023-09-08T07:38:04;8.82;;;7.22;;
7142;SDS011;3613;48.902;9.204;2023-09-08T07:40:29;10.40;;;6.20;;
7142;SDS011;3613;48.902;9.204;2023-09-08T07:42:58;7.65;;;5.90;;
7142;SDS011;3613;48.902;9.204;2023-09-08T07:45:26;6.60;;;5.88;;
7142;SDS011;3613;48.902;9.204;2023-09-08T07:47:52;7.65;;;5.75;;
7142;SDS011;3613;48.902;9.204;2023-09-08T07:52:53;6.88;;;5.50;;
7142;SDS011;3613;48.902;9.204;2023-09-08T07:55:20;6.50;;;5.63;;
7142;SDS011;3613;48.902;9.204;2023-09-08T07:57:49;5.90;;;5.30;;
7142;SDS011;3613;48.902;9.204;2023-09-08T08:00:16;8.27;;;6.13;;
7142;SDS011;3613;48.902;9.204;2023-09-08T08:02:45;8.40;;;6.03;;
7142;SDS011;3613;48.902;9.204;2023-09-08T08:05:12;6.38;;;5.78;;
7142;SDS011;3613;48.902;9.204;2023-09-08T08:07:41;7.35;;;5.90;;
7142;SDS011;3613;48.902;9.204;2023-09-08T08:10:07;6.68;;;5.45;;
7142;SDS011;3613;48.902;9.204;2023-09-08T08:12:36;8.48;;;5.90;;
7142;SDS011;3613;48.902;9.204;2023-09-08T08:15:02;7.47;;;5.32;;
7142;SDS011;3613;48.902;9.204;2023-09-08T08:17:29;6.75;;;5.75;;
7142;SDS011;3613;48.902;9.204;2023-09-08T08:19:56;6.88;;;5.53;;
7142;SDS011;3613;48.902;9.204;2023-09-08T08:22:23;5.82;;;5.32;;
7142;SDS011;3613;48.902;9.204;2023-09-08T08:24:49;6.32;;;5.72;;
7142;SDS011;3613;48.902;9.204;2023-09-08T08:27:17;8.77;;;7.30;;
7142;SDS011;3613;48.902;9.204;2023-09-08T08:29:43;7.50;;;6.80;;
7142;SDS011;3613;48.902;9.204;2023-09-08T08:32:08;6.70;;;5.82;;
7142;SDS011;3613;48.902;9.204;2023-09-08T08:34:34;6.43;;;5.32;;
7142;SDS011;3613;48.902;9.204;2023-09-08T08:37:00;6.78;;;5.82;;
7142;SDS011;3613;48.902;9.204;2023-09-08T08:39:25;7.68;;;6.18;;
7142;SDS011;3613;48.902;9.204;2023-09-08T08:41:51;6.63;;;5.80;;
7142;SDS011;3613;48.902;9.204;2023-09-08T08:44:17;6.45;;;5.72;;
7142;SDS011;3613;48.902;9.204;2023-09-08T08:46:44;8.13;;;6.05;;
7142;SDS011;3613;48.902;9.204;2023-09-08T08:49:11;9.50;;;6.60;;
7142;SDS011;3613;48.902;9.204;2023-09-08T08:51:40;7.20;;;5.60;;
7142;SDS011;3613;48.902;9.204;2023-09-08T08:54:10;7.53;;;5.85;;
7142;SDS011;3613;48.902;9.204;2023-09-08T08:56:38;8.18;;;6.07;;
7142;SDS011;3613;48.902;9.204;2023-09-08T08:59:04;7.88;;;6.18;;
7142;SDS011;3613;48.902;9.204;2023-09-08T09:01:35;6.30;;;5.70;;
7142;SDS011;3613;48.902;9.204;2023-09-08T09:04:01;7.18;;;5.82;;
7142;SDS011;3613;48.902;9.204;2023-09-08T09:06:33;6.93;;;5.80;;
7142;SDS011;3613;48.902;9.204;2023-09-08T09:09:01;6.68;;;5.38;;
7142;SDS011;3613;48.902;9.204;2023-09-08T09:11:30;7.50;;;5.85;;
7142;SDS011;3613;48.902;9.204;2023-09-08T09:13:59;7.18;;;5.90;;
7142;SDS011;3613;48.902;9.204;2023-09-08T09:16:25;6.45;;;5.80;;
7142;SDS011;3613;48.902;9.204;2023-09-08T09:18:54;6.53;;;5.93;;
7142;SDS011;3613;48.902;9.204;2023-09-08T09:21:24;6.15;;;5.55;;
7142;SDS011;3613;48.902;9.204;2023-09-08T09:24:16;6.68;;;5.97;;
7142;SDS011;3613;48.902;9.204;2023-09-08T09:26:44;7.25;;;6.43;;
7142;SDS011;3613;48.902;9.204;2023-09-08T09:29:13;8.85;;;6.28;;
7142;SDS011;3613;48.902;9.204;2023-09-08T09:32:24;6.25;;;5.65;;
7142;SDS011;3613;48.902;9.204;2023-09-08T09:34:34;8.32;;;5.63;;
7142;SDS011;3613;48.902;9.204;2023-09-08T09:37:03;8.25;;;6.00;;
7142;SDS011;3613;48.902;9.204;2023-09-08T09:39:30;6.38;;;5.78;;
7142;SDS011;3613;48.902;9.204;2023-09-08T09:41:58;6.72;;;6.07;;
7142;SDS011;3613;48.902;9.204;2023-09-08T09:44:24;6.57;;;5.95;;
7142;SDS011;3613;48.902;9.204;2023-09-08T09:46:52;7.50;;;6.22;;
7142;SDS011;3613;48.902;9.204;2023-09-08T09:49:18;6.82;;;5.55;;
7142;SDS011;3613;48.902;9.204;2023-09-08T09:51:47;6.25;;;5.72;;
7142;SDS011;3613;48.902;9.204;2023-09-08T09:54:16;6.18;;;5.57;;
7142;SDS011;3613;48.902;9.204;2023-09-08T09:56:45;8.93;;;6.15;;
7142;SDS011;3613;48.902;9.204;2023-09-08T09:59:14;8.98;;;6.07;;
7142;SDS011;3613;48.902;9.204;2023-09-08T10:01:40;6.18;;;5.47;;
7142;SDS011;3613;48.902;9.204;2023-09-08T10:04:07;7.00;;;5.72;;
7142;SDS011;3613;48.902;9.204;2023-09-08T10:06:33;6.70;;;5.82;;
7142;SDS011;3613;48.902;9.204;2023-09-08T10:09:00;6.70;;;5.60;;
7142;SDS011;3613;48.902;9.204;2023-09-08T10:11:32;6.07;;;5.50;;
7142;SDS011;3613;48.902;9.204;2023-09-08T10:14:11;8.80;;;6.00;;
7142;SDS011;3613;48.902;9.204;2023-09-08T10:16:40;6.32;;;5.72;;
7142;SDS011;3613;48.902;9.204;2023-09-08T10:19:14;6.88;;;5.90;;
7142;SDS011;3613;48.902;9.204;2023-09-08T10:21:41;6.47;;;5.82;;
7142;SDS011;3613;48.902;9.204;2023-09-08T10:29:27;7.43;;;5.57;;
7142;SDS011;3613;48.902;9.204;2023-09-08T10:31:57;7.82;;;5.80;;
7142;SDS011;3613;48.902;9.204;2023-09-08T10:34:23;7.20;;;6.13;;
7142;SDS011;3613;48.902;9.204;2023-09-08T10:36:52;6.05;;;5.43;;
7142;SDS011;3613;48.902;9.204;2023-09-08T10:42:29;7.55;;;5.43;;
7142;SDS011;3613;48.902;9.204;2023-09-08T10:50:16;5.60;;;5.10;;
7142;SDS011;3613;48.902;9.204;2023-09-08T10:52:45;5.78;;;5.28;;
7142;SDS011;3613;48.902;9.204;2023-09-08T10:55:35;6.50;;;5.50;;
7142;SDS011;3613;48.902;9.204;2023-09-08T11:00:58;5.65;;;5.00;;
7142;SDS011;3613;48.902;9.204;2023-09-08T11:06:07;8.73;;;5.05;;
7142;SDS011;3613;48.902;9.204;2023-09-08T11:08:42;8.13;;;5.18;;
7142;SDS011;3613;48.902;9.204;2023-09-08T11:11:10;5.50;;;4.95;;
7142;SDS011;3613;48.902;9.204;2023-09-08T11:13:36;5.82;;;4.75;;
7142;SDS011;3613;48.902;9.204;2023-09-08T11:16:02;9.23;;;5.40;;
7142;SDS011;3613;48.902;9.204;2023-09-08T11:18:32;6.22;;;5.03;;
7142;SDS011;3613;48.902;9.204;2023-09-08T11:20:59;5.35;;;4.95;;
7142;SDS011;3613;48.902;9.204;2023-09-08T11:23:27;6.97;;;5.25;;
7142;SDS011;3613;48.902;9.204;2023-09-08T11:25:53;16.70;;;13.98;;
7142;SDS011;3613;48.902;9.204;2023-09-08T11:28:21;6.60;;;5.13;;
7142;SDS011;3613;48.902;9.204;2023-09-08T11:30:47;8.20;;;5.15;;
7142;SDS011;3613;48.902;9.204;2023-09-08T11:33:19;7.40;;;5.25;;
7142;SDS011;3613;48.902;9.204;2023-09-08T11:35:52;6.03;;;4.90;;
7142;SDS011;3613;48.902;9.204;2023-09-08T11:38:26;6.22;;;5.60;;
7142;SDS011;3613;48.902;9.204;2023-09-08T11:40:56;9.48;;;5.22;;
7142;SDS011;3613;48.902;9.204;2023-09-08T11:43:25;6.47;;;5.45;;
7142;SDS011;3613;48.902;9.204;2023-09-08T11:45:53;5.32;;;4.82;;
7142;SDS011;3613;48.902;9.204;2023-09-08T11:48:23;7.57;;;5.18;;
7142;SDS011;3613;48.902;9.204;2023-09-08T11:50:52;8.25;;;5.43;;
7142;SDS011;3613;48.902;9.204;2023-09-08T11:53:19;6.82;;;5.05;;
7142;SDS011;3613;48.902;9.204;2023-09-08T11:55:46;5.82;;;5.32;;
7142;SDS011;3613;48.902;9.204;2023-09-08T11:58:12;5.68;;;5.18;;
7142;SDS011;3613;48.902;9.204;2023-09-08T12:00:37;6.88;;;6.18;;
7142;SDS011;3613;48.902;9.204;2023-09-08T12:03:09;6.22;;;5.63;;
7142;SDS011;3613;48.902;9.204;2023-09-08T12:05:38;6.13;;;5.10;;
7142;SDS011;3613;48.902;9.204;2023-09-08T12:08:07;5.93;;;5.35;;
7142;SDS011;3613;48.902;9.204;2023-09-08T12:10:39;5.75;;;5.10;;
7142;SDS011;3613;48.902;9.204;2023-09-08T12:13:10;5.43;;;4.95;;
7142;SDS011;3613;48.902;9.204;2023-09-08T12:15:45;6.82;;;4.80;;
7142;SDS011;3613;48.902;9.204;2023-09-08T12:18:11;6.18;;;5.43;;
7142;SDS011;3613;48.902;9.204;2023-09-08T12:20:40;6.85;;;5.03;;
7142;SDS011;3613;48.902;9.204;2023-09-08T12:23:14;7.57;;;5.63;;
7142;SDS011;3613;48.902;9.204;2023-09-08T12:25:45;6.10;;;5.20;;
7142;SDS011;3613;48.902;9.204;2023-09-08T12:28:15;5.78;;;5.28;;
7142;SDS011;3613;48.902;9.204;2023-09-08T12:30:41;6.57;;;5.47;;
7142;SDS011;3613;48.902;9.204;2023-09-08T12:33:08;6.22;;;4.80;;
7142;SDS011;3613;48.902;9.204;2023-09-08T12:35:35;6.00;;;5.40;;
7142;SDS011;3613;48.902;9.204;2023-09-08T12:38:01;5.85;;;5.22;;
7142;SDS011;3613;48.902;9.204;2023-09-08T12:40:33;6.13;;;5.50;;
7142;SDS011;3613;48.902;9.204;2023-09-08T12:43:00;7.13;;;5.75;;
7142;SDS011;3613;48.902;9.204;2023-09-08T12:45:29;6.57;;;5.30;;
7142;SDS011;3613;48.902;9.204;2023-09-08T12:47:59;5.70;;;5.00;;
7142;SDS011;3613;48.902;9.204;2023-09-08T12:50:26;5.68;;;5.10;;
7142;SDS011;3613;48.902;9.204;2023-09-08T12:52:52;5.88;;;5.38;;
7142;SDS011;3613;48.902;9.204;2023-09-08T12:55:18;5.88;;;5.00;;
7142;SDS011;3613;48.902;9.204;2023-09-08T12:57:47;5.50;;;5.00;;
7142;SDS011;3613;48.902;9.204;2023-09-08T13:00:15;5.93;;;5.10;;
7142;SDS011;3613;48.902;9.204;2023-09-08T13:02:41;5.90;;;4.90;;
7142;SDS011;3613;48.902;9.204;2023-09-08T13:05:06;5.15;;;4.65;;
7142;SDS011;3613;48.902;9.204;2023-09-08T13:07:33;9.75;;;5.95;;
7142;SDS011;3613;48.902;9.204;2023-09-08T13:10:06;5.97;;;4.80;;
7142;SDS011;3613;48.902;9.204;2023-09-08T13:12:32;6.13;;;5.28;;
7142;SDS011;3613;48.902;9.204;2023-09-08T13:15:00;7.35;;;5.22;;
7142;SDS011;3613;48.902;9.204;2023-09-08T13:17:26;5.72;;;4.45;;
7142;SDS011;3613;48.902;9.204;2023-09-08T13:19:54;6.18;;;5.57;;
7142;SDS011;3613;48.902;9.204;2023-09-08T13:22:22;5.20;;;4.72;;
7142;SDS011;3613;48.902;9.204;2023-09-08T13:24:49;5.68;;;5.18;;
7142;SDS011;3613;48.902;9.204;2023-09-08T13:27:17;9.23;;;5.65;;
7142;SDS011;3613;48.902;9.204;2023-09-08T13:29:45;6.43;;;5.40;;
7142;SDS011;3613;48.902;9.204;2023-09-08T13:32:13;5.37;;;4.87;;
7142;SDS011;3613;48.902;9.204;2023-09-08T13:34:42;5.37;;;4.87;;
7142;SDS011;3613;48.902;9.204;2023-09-08T13:37:11;5.83;;;4.80;;
7142;SDS011;3613;48.902;9.204;2023-09-08T13:39:37;6.43;;;5.80;;
7142;SDS011;3613;48.902;9.204;2023-09-08T13:42:03;6.03;;;5.50;;
7142;SDS011;3613;48.902;9.204;2023-09-08T13:44:29;6.83;;;5.50;;
7142;SDS011;3613;48.902;9.204;2023-09-08T13:46:54;6.20;;;5.33;;
7142;SDS011;3613;48.902;9.204;2023-09-08T13:49:23;6.23;;;5.20;;
7142;SDS011;3613;48.902;9.204;2023-09-08T13:51:48;6.27;;;5.00;;
7142;SDS011;3613;48.902;9.204;2023-09-08T13:54:18;6.60;;;5.27;;
7142;SDS011;3613;48.902;9.204;2023-09-08T13:56:56;5.80;;;4.97;;
7142;SDS011;3613;48.902;9.204;2023-09-08T13:59:27;5.90;;;5.30;;
7142;SDS011;3613;48.902;9.204;2023-09-08T14:01:56;7.53;;;5.50;;
7142;SDS011;3613;48.902;9.204;2023-09-08T14:04:24;5.30;;;4.80;;
7142;SDS011;3613;48.902;9.204;2023-09-08T14:06:50;6.30;;;5.67;;
7142;SDS011;3613;48.902;9.204;2023-09-08T14:09:18;6.63;;;4.87;;
7142;SDS011;3613;48.902;9.204;2023-09-08T14:11:46;7.13;;;5.40;;
7142;SDS011;3613;48.902;9.204;2023-09-08T14:14:11;8.43;;;5.10;;
7142;SDS011;3613;48.902;9.204;2023-09-08T14:16:37;5.90;;;5.33;;
7142;SDS011;3613;48.902;9.204;2023-09-08T14:19:03;8.33;;;4.97;;
7142;SDS011;3613;48.902;9.204;2023-09-08T14:21:29;5.70;;;4.70;;
7142;SDS011;3613;48.902;9.204;2023-09-08T14:23:54;7.20;;;4.80;;
7142;SDS011;3613;48.902;9.204;2023-09-08T14:26:20;6.60;;;5.50;;
7142;SDS011;3613;48.902;9.204;2023-09-08T14:28:46;5.90;;;5.20;;
7142;SDS011;3613;48.902;9.204;2023-09-08T14:31:12;5.20;;;4.63;;
7142;SDS011;3613;48.902;9.204;2023-09-08T14:33:38;8.43;;;5.20;;
7142;SDS011;3613;48.902;9.204;2023-09-08T14:36:04;6.33;;;5.20;;
7142;SDS011;3613;48.902;9.204;2023-09-08T14:38:29;5.60;;;5.07;;
7142;SDS011;3613;48.902;9.204;2023-09-08T14:40:58;6.07;;;5.27;;
7142;SDS011;3613;48.902;9.204;2023-09-08T14:43:26;6.37;;;4.70;;
7142;SDS011;3613;48.902;9.204;2023-09-08T14:45:53;6.00;;;5.00;;
7142;SDS011;3613;48.902;9.204;2023-09-08T14:48:19;5.70;;;5.20;;
7142;SDS011;3613;48.902;9.204;2023-09-08T14:50:45;5.60;;;5.03;;
7142;SDS011;3613;48.902;9.204;2023-09-08T14:53:11;5.67;;;5.03;;
7142;SDS011;3613;48.902;9.204;2023-09-08T14:55:36;6.80;;;4.83;;
7142;SDS011;3613;48.902;9.204;2023-09-08T14:58:02;5.67;;;5.10;;
7142;SDS011;3613;48.902;9.204;2023-09-08T15:00:31;6.20;;;4.90;;
7142;SDS011;3613;48.902;9.204;2023-09-08T15:02:56;5.37;;;4.87;;
7142;SDS011;3613;48.902;9.204;2023-09-08T15:05:22;5.93;;;4.97;;
7142;SDS011;3613;48.902;9.204;2023-09-08T15:07:51;5.83;;;4.57;;
7142;SDS011;3613;48.902;9.204;2023-09-08T15:10:18;5.40;;;4.90;;
7142;SDS011;3613;48.902;9.204;2023-09-08T15:12:45;5.70;;;5.20;;
7142;SDS011;3613;48.902;9.204;2023-09-08T15:15:10;5.73;;;5.20;;
7142;SDS011;3613;48.902;9.204;2023-09-08T15:17:39;5.43;;;4.93;;
7142;SDS011;3613;48.902;9.204;2023-09-08T15:20:07;8.07;;;4.70;;
7142;SDS011;3613;48.902;9.204;2023-09-08T15:22:34;8.87;;;5.10;;
7142;SDS011;3613;48.902;9.204;2023-09-08T15:25:00;7.07;;;4.87;;
7142;SDS011;3613;48.902;9.204;2023-09-08T15:27:27;5.23;;;4.27;;
7142;SDS011;3613;48.902;9.204;2023-09-08T15:29:53;5.73;;;4.93;;